Terminal Aerodrome Forecast
Issued by NWS Jacksonville, FL

Home | Current Version | Previous Version | Text Only | Print | Product List | Glossary On
Versions: 1 2 3 4 5 6 7 8 9 10 11 12 13 14 15 16 17 18 19 20 21 22 23 24 25 26 27 28 29 30 31 32 33
000
FTUS42 KJAX 192200 AAB
TAFJAX
TAF AMD
KJAX 192239Z 1923/2018 32008KT 6SM -TSRA SCT025CB BKN090
      TEMPO 1923/1924 35015G20KT 3SM TSRA BKN025CB
     FM200000 07003KT P6SM VCSH BKN040 BKN250
     FM200600 09006KT P6SM SCT020 BKN100
     FM201500 04008KT P6SM BKN020 OVC100=

USA.gov is the U.S. government's official web portal to all federal, state and local government web resources and services.